Stella W. — WDG5429 — position and weather

sailwx.info

Track history (hours):
 
Tides and Currents Weather Stations Pressure Air Temp Water Temp Dewpoint Dewpoint Depression Visibility Wind Speed Wind Dir Waves Ship Positions

Stella W.

Owner: T & M Boat Rentals, Berwick, LA. More information available from US FCC via Universal Licensing System and Coast Guard Vessel Documentation Center.

Last reported at 2018-Jun-06 18:26 UTC. Time now 2018-Jun-25 11:33 UTC.
Position N 29°34' W 090°57'.
Warning: this ship's position is 18 days out of date.

Length 16 m; draft 5.7 m.

Type: Towing. MMSI: 367546570.

Date/timePositionNaut miles runAvg speedWind from/ knotsBaromVisibWave heightAir tempDewpointWater temp
2018-Jun-06 18:26N 29°34' W 090°57'3 6.8
2018-Jun-06 17:57N 29°33' W 090°54'3 6.6
2018-Jun-06 17:30N 29°32' W 090°50'3 6.8
2018-Jun-06 17:00N 29°32' W 090°46'3 6.0
2018-Jun-06 16:30N 29°34' W 090°44'3 5.2
2018-Jun-06 16:00N 29°36' W 090°43'3 6.2
2018-Jun-06 15:27N 29°35' W 090°39'3 6.7
2018-Jun-06 15:00N 29°35' W 090°35'8 0.5
2018-Jun-05 23:46N 29°33' W 090°27'2 7.4
2018-Jun-05 23:28N 29°34' W 090°29'3 7.5
2018-Jun-05 23:00N 29°34' W 090°33'4 7.2
2018-Jun-05 22:30N 29°35' W 090°37'4 7.1
2018-Jun-05 22:00N 29°36' W 090°41'3 5.1
2018-Jun-05 21:30N 29°35' W 090°43'1 2.5
2018-Jun-05 21:00N 29°34' W 090°44'3 6.8
2018-Jun-05 20:30N 29°32' W 090°48'5 7.7
2018-Jun-05 19:49N 29°33' W 090°54'5 0.1
2018-Jun-04 05:59N 29°36' W 090°58'3 5.6
2018-Jun-04 05:29N 29°34' W 090°56'3 5.7
2018-Jun-04 04:55N 29°32' W 090°53'2 5.4
2018-Jun-04 04:30N 29°32' W 090°50'3 5.5
2018-Jun-04 04:00N 29°32' W 090°47'2 4.6
2018-Jun-04 03:30N 29°33' W 090°45'1 2.6
2018-Jun-04 03:00N 29°34' W 090°44'1 1.2
2018-Jun-04 02:29N 29°34' W 090°43'2 4.5
2018-Jun-04 02:00N 29°32' W 090°42'3 5.6
2018-Jun-04 01:30N 29°29' W 090°43'8 0.2
2018-Jun-02 10:08N 29°22' W 090°44'1 6.8
2018-Jun-02 10:00N 29°23' W 090°44'3 6.6
2018-Jun-02 09:30N 29°26' W 090°43'4 7.1
2018-Jun-02 09:00N 29°29' W 090°43'3 7.0
2018-Jun-02 08:30N 29°33' W 090°42'1 2.9
2018-Jun-02 08:00N 29°34' W 090°44'0 0.3
2018-Jun-02 07:30N 29°34' W 090°43'1 1.7
2018-Jun-02 07:00N 29°34' W 090°43'0 0.0
2018-Jun-02 06:31N 29°34' W 090°43'0 0.0
2018-Jun-02 06:00N 29°34' W 090°43'0 0.1
2018-Jun-02 05:30N 29°34' W 090°43'0 0.9
2018-Jun-02 05:00N 29°34' W 090°42'0 0.9
2018-Jun-02 04:30N 29°33' W 090°42'1 2.2
2018-Jun-02 04:00N 29°34' W 090°43'2 4.8
2018-Jun-02 03:30N 29°33' W 090°46'3 5.2
2018-Jun-02 03:00N 29°32' W 090°48'3 5.6
2018-Jun-02 02:30N 29°32' W 090°52'3 5.4
2018-Jun-02 02:00N 29°33' W 090°55'  
2018-May-30 17:54N 29°51' W 091°55'3 6.5
2018-May-30 17:30N 29°50' W 091°58'3 6.7
2018-May-30 17:00N 29°49' W 092°01'3 6.9
2018-May-30 16:30N 29°48' W 092°05'4 7.1
2018-May-30 16:00N 29°47' W 092°09'3 6.0
2018-May-30 15:30N 29°47' W 092°12'1 2.1
2018-May-30 15:00N 29°48' W 092°13'0 0.6
2018-May-30 14:30N 29°48' W 092°14'1 1.7
2018-May-30 14:00N 29°48' W 092°15'4 7.1
2018-May-30 13:30N 29°50' W 092°18'3 6.8
2018-May-30 13:00N 29°51' W 092°22'31 6.4
2018-May-30 08:11N 29°56' W 092°57'2 6.5
2018-May-30 07:55N 29°56' W 092°59'5 6.7
2018-May-30 07:08N 29°56' W 093°05'1 6.7
2018-May-30 06:59N 29°56' W 093°06'3 6.6
2018-May-30 06:30N 29°56' W 093°10'3 6.7
2018-May-30 06:00N 29°59' W 093°12'3 6.6
2018-May-30 05:30N 30°02' W 093°14'3 6.4
2018-May-30 05:00N 30°04' W 093°16'2 3.7
2018-May-30 04:30N 30°05' W 093°18'1 1.0
2018-May-30 04:00N 30°06' W 093°18'2 3.9
2018-May-30 03:30N 30°05' W 093°20'4 7.1
2018-May-30 03:00N 30°04' W 093°24'4 7.4
2018-May-30 02:30N 30°04' W 093°28'4 7.2
2018-May-30 02:00N 30°04' W 093°32'4 7.2
2018-May-30 01:30N 30°04' W 093°37'4 7.2
2018-May-30 01:00N 30°04' W 093°41'4 7.1
2018-May-30 00:30N 30°02' W 093°44'4 7.1
2018-May-30 00:00N 29°59' W 093°47'4 7.2
2018-May-29 23:30N 29°58' W 093°51'4 7.3
2018-May-29 23:00N 29°55' W 093°53'4 7.6
2018-May-29 22:31N 29°52' W 093°56'4 7.0
2018-May-29 22:00N 29°49' W 093°58'2 5.0
2018-May-29 21:30N 29°48' W 094°01'4 7.5
2018-May-29 21:00N 29°45' W 094°04'4 7.3
2018-May-29 20:30N 29°43' W 094°07'4 7.1
2018-May-29 20:00N 29°41' W 094°11'4 7.3
2018-May-29 19:30N 29°40' W 094°15'30 6.8
2018-May-29 15:07N 29°25' W 094°44'1 7.0
2018-May-29 14:56N 29°24' W 094°45'3 7.1
2018-May-29 14:30N 29°22' W 094°48'4 7.3
2018-May-29 14:00N 29°19' W 094°51'3 6.5
2018-May-29 13:30N 29°17' W 094°54'3 6.0
2018-May-29 13:00N 29°17' W 094°57'2 4.7
2018-May-29 12:31N 29°16' W 094°59'3 6.2
2018-May-29 12:01N 29°14' W 095°02'3 6.0
2018-May-29 11:31N 29°12' W 095°04'3 6.4
2018-May-29 11:01N 29°10' W 095°08'3 6.9
2018-May-29 10:31N 29°08' W 095°11'4 7.1
2018-May-29 10:00N 29°05' W 095°13'5 7.9
2018-May-29 09:25N 29°00' W 095°15'  
Track history (hours):
 
Tides and Currents Weather Stations Pressure Air Temp Water Temp Dewpoint Dewpoint Depression Visibility Wind Speed Wind Dir Waves Ship Positions

Stella W.

Owner: T & M Boat Rentals, Berwick, LA. More information available from US FCC via Universal Licensing System and Coast Guard Vessel Documentation Center.

Last reported at 2018-Jun-06 18:26 UTC. Time now 2018-Jun-25 11:33 UTC.
Position N 29°34' W 090°57'.
Warning: this ship's position is 18 days out of date.

Length 16 m; draft 5.7 m.

Type: Towing. MMSI: 367546570.

Date/timePositionNaut miles runAvg speedWind from/ knotsBaromVisibWave heightAir tempDewpointWater temp
2018-Jun-06 18:26N 29°34' W 090°57'3 6.8
2018-Jun-06 17:57N 29°33' W 090°54'3 6.6
2018-Jun-06 17:30N 29°32' W 090°50'3 6.8
2018-Jun-06 17:00N 29°32' W 090°46'3 6.0
2018-Jun-06 16:30N 29°34' W 090°44'3 5.2
2018-Jun-06 16:00N 29°36' W 090°43'3 6.2
2018-Jun-06 15:27N 29°35' W 090°39'3 6.7
2018-Jun-06 15:00N 29°35' W 090°35'8 0.5
2018-Jun-05 23:46N 29°33' W 090°27'2 7.4
2018-Jun-05 23:28N 29°34' W 090°29'3 7.5
2018-Jun-05 23:00N 29°34' W 090°33'4 7.2
2018-Jun-05 22:30N 29°35' W 090°37'4 7.1
2018-Jun-05 22:00N 29°36' W 090°41'3 5.1
2018-Jun-05 21:30N 29°35' W 090°43'1 2.5
2018-Jun-05 21:00N 29°34' W 090°44'3 6.8
2018-Jun-05 20:30N 29°32' W 090°48'5 7.7
2018-Jun-05 19:49N 29°33' W 090°54'5 0.1
2018-Jun-04 05:59N 29°36' W 090°58'3 5.6
2018-Jun-04 05:29N 29°34' W 090°56'3 5.7
2018-Jun-04 04:55N 29°32' W 090°53'2 5.4
2018-Jun-04 04:30N 29°32' W 090°50'3 5.5
2018-Jun-04 04:00N 29°32' W 090°47'2 4.6
2018-Jun-04 03:30N 29°33' W 090°45'1 2.6
2018-Jun-04 03:00N 29°34' W 090°44'1 1.2
2018-Jun-04 02:29N 29°34' W 090°43'2 4.5
2018-Jun-04 02:00N 29°32' W 090°42'3 5.6
2018-Jun-04 01:30N 29°29' W 090°43'8 0.2
2018-Jun-02 10:08N 29°22' W 090°44'1 6.8
2018-Jun-02 10:00N 29°23' W 090°44'3 6.6
2018-Jun-02 09:30N 29°26' W 090°43'4 7.1
2018-Jun-02 09:00N 29°29' W 090°43'3 7.0
2018-Jun-02 08:30N 29°33' W 090°42'1 2.9
2018-Jun-02 08:00N 29°34' W 090°44'0 0.3
2018-Jun-02 07:30N 29°34' W 090°43'1 1.7
2018-Jun-02 07:00N 29°34' W 090°43'0 0.0
2018-Jun-02 06:31N 29°34' W 090°43'0 0.0
2018-Jun-02 06:00N 29°34' W 090°43'0 0.1
2018-Jun-02 05:30N 29°34' W 090°43'0 0.9
2018-Jun-02 05:00N 29°34' W 090°42'0 0.9
2018-Jun-02 04:30N 29°33' W 090°42'1 2.2
2018-Jun-02 04:00N 29°34' W 090°43'2 4.8
2018-Jun-02 03:30N 29°33' W 090°46'3 5.2
2018-Jun-02 03:00N 29°32' W 090°48'3 5.6
2018-Jun-02 02:30N 29°32' W 090°52'3 5.4
2018-Jun-02 02:00N 29°33' W 090°55'  
2018-May-30 17:54N 29°51' W 091°55'3 6.5
2018-May-30 17:30N 29°50' W 091°58'3 6.7
2018-May-30 17:00N 29°49' W 092°01'3 6.9
2018-May-30 16:30N 29°48' W 092°05'4 7.1
2018-May-30 16:00N 29°47' W 092°09'3 6.0
2018-May-30 15:30N 29°47' W 092°12'1 2.1
2018-May-30 15:00N 29°48' W 092°13'0 0.6
2018-May-30 14:30N 29°48' W 092°14'1 1.7
2018-May-30 14:00N 29°48' W 092°15'4 7.1
2018-May-30 13:30N 29°50' W 092°18'3 6.8
2018-May-30 13:00N 29°51' W 092°22'31 6.4
2018-May-30 08:11N 29°56' W 092°57'2 6.5
2018-May-30 07:55N 29°56' W 092°59'5 6.7
2018-May-30 07:08N 29°56' W 093°05'1 6.7
2018-May-30 06:59N 29°56' W 093°06'3 6.6
2018-May-30 06:30N 29°56' W 093°10'3 6.7
2018-May-30 06:00N 29°59' W 093°12'3 6.6
2018-May-30 05:30N 30°02' W 093°14'3 6.4
2018-May-30 05:00N 30°04' W 093°16'2 3.7
2018-May-30 04:30N 30°05' W 093°18'1 1.0
2018-May-30 04:00N 30°06' W 093°18'2 3.9
2018-May-30 03:30N 30°05' W 093°20'4 7.1
2018-May-30 03:00N 30°04' W 093°24'4 7.4
2018-May-30 02:30N 30°04' W 093°28'4 7.2
2018-May-30 02:00N 30°04' W 093°32'4 7.2
2018-May-30 01:30N 30°04' W 093°37'4 7.2
2018-May-30 01:00N 30°04' W 093°41'4 7.1
2018-May-30 00:30N 30°02' W 093°44'4 7.1
2018-May-30 00:00N 29°59' W 093°47'4 7.2
2018-May-29 23:30N 29°58' W 093°51'4 7.3
2018-May-29 23:00N 29°55' W 093°53'4 7.6
2018-May-29 22:31N 29°52' W 093°56'4 7.0
2018-May-29 22:00N 29°49' W 093°58'2 5.0
2018-May-29 21:30N 29°48' W 094°01'4 7.5
2018-May-29 21:00N 29°45' W 094°04'4 7.3
2018-May-29 20:30N 29°43' W 094°07'4 7.1
2018-May-29 20:00N 29°41' W 094°11'4 7.3
2018-May-29 19:30N 29°40' W 094°15'30 6.8
2018-May-29 15:07N 29°25' W 094°44'1 7.0
2018-May-29 14:56N 29°24' W 094°45'3 7.1
2018-May-29 14:30N 29°22' W 094°48'4 7.3
2018-May-29 14:00N 29°19' W 094°51'3 6.5
2018-May-29 13:30N 29°17' W 094°54'3 6.0
2018-May-29 13:00N 29°17' W 094°57'2 4.7
2018-May-29 12:31N 29°16' W 094°59'3 6.2
2018-May-29 12:01N 29°14' W 095°02'3 6.0
2018-May-29 11:31N 29°12' W 095°04'3 6.4
2018-May-29 11:01N 29°10' W 095°08'3 6.9
2018-May-29 10:31N 29°08' W 095°11'4 7.1
2018-May-29 10:00N 29°05' W 095°13'5 7.9
2018-May-29 09:25N 29°00' W 095°15'  

Dump ship's entire track history